Time;durP1;ratioP1;P1;durP2;ratioP2;P2;SDS_P1;SDS_P2;PMS_P1;PMS_P2;Temp;Humidity;BMP_temperature;BMP_pressure;BME280_temperature;BME280_humidity;BME280_pressure;Samples;Min_cycle;Max_cycle;Signal;HPM_P1;HPM_P2
2021/08/16 17:44:51;;;;;;;21.38;10.82;;;25.20;77.00;;;;;;5051521;28;20455;-68
2021/08/16 17:47:17;;;;;;;16.90;11.00;;;24.60;77.60;;;;;;5050562;28;20448;-68
2021/08/16 17:49:43;;;;;;;16.85;11.65;;;24.60;78.70;;;;;;5050695;28;20029;-68
2021/08/16 17:52:08;;;;;;;19.10;11.80;;;24.60;79.50;;;;;;5050667;28;20067;-68
2021/08/16 17:54:37;;;;;;;20.00;11.75;;;24.70;79.80;;;;;;5046495;28;20025;-68
2021/08/16 17:57:04;;;;;;;23.15;12.10;;;24.70;80.50;;;;;;5030338;28;20033;-68
2021/08/16 17:59:30;;;;;;;18.48;11.73;;;24.80;80.30;;;;;;5030036;28;20022;-68
2021/08/16 18:01:56;;;;;;;22.52;13.70;;;24.80;80.30;;;;;;5030458;28;20469;-68
2021/08/16 18:04:21;;;;;;;21.00;14.77;;;24.90;79.80;;;;;;5020088;28;20038;-68
2021/08/16 18:06:47;;;;;;;28.50;16.88;;;25.00;79.50;;;;;;5021676;28;20044;-68
2021/08/16 18:09:13;;;;;;;28.73;18.00;;;25.10;79.50;;;;;;5030413;28;20067;-68
2021/08/16 18:11:39;;;;;;;29.17;18.77;;;25.10;79.40;;;;;;5030067;28;20061;-68
2021/08/16 18:14:06;;;;;;;37.33;22.13;;;25.10;79.20;;;;;;5030215;28;20391;-68
2021/08/16 18:16:32;;;;;;;35.33;21.73;;;25.20;78.90;;;;;;5030392;28;20030;-68
2021/08/16 18:18:58;;;;;;;37.28;22.38;;;25.20;78.50;;;;;;5037685;28;20025;-68
2021/08/16 18:21:24;;;;;;;37.05;21.25;;;25.20;78.30;;;;;;5049978;28;20053;-68
2021/08/16 18:23:50;;;;;;;37.38;23.35;;;25.30;78.50;;;;;;5049865;28;20111;-68
2021/08/16 18:26:16;;;;;;;29.50;20.52;;;25.30;78.50;;;;;;5049931;28;20188;-68
2021/08/16 18:28:42;;;;;;;33.97;21.25;;;25.30;78.40;;;;;;5049863;28;20100;-68
2021/08/16 18:31:08;;;;;;;30.65;19.75;;;25.30;78.30;;;;;;5049706;28;20040;-68
2021/08/16 18:33:34;;;;;;;30.52;19.17;;;25.20;78.20;;;;;;5049798;28;20025;-68
2021/08/16 18:36:00;;;;;;;30.83;19.35;;;25.20;78.30;;;;;;5032525;28;20029;-68
2021/08/16 18:38:25;;;;;;;31.88;18.83;;;25.20;78.10;;;;;;5029711;28;20075;-68
2021/08/16 18:40:51;;;;;;;23.88;16.67;;;25.20;78.30;;;;;;5047675;28;20448;-68
2021/08/16 18:43:17;;;;;;;24.50;16.60;;;25.20;78.20;;;;;;5049072;28;20403;-68
2021/08/16 18:45:43;;;;;;;26.48;15.40;;;25.10;78.10;;;;;;5049500;28;20033;-68
2021/08/16 18:48:08;;;;;;;20.42;14.68;;;25.10;78.20;;;;;;5034665;28;20040;-68
2021/08/16 18:50:35;;;;;;;22.77;15.32;;;25.10;78.50;;;;;;5029629;28;20037;-68
2021/08/16 18:53:01;;;;;;;22.15;15.25;;;25.00;78.50;;;;;;5029615;28;20064;-68
2021/08/16 18:55:26;;;;;;;24.40;14.85;;;25.00;78.70;;;;;;5031046;28;20364;-68
2021/08/16 18:57:53;;;;;;;24.33;15.05;;;25.00;78.60;;;;;;5018889;28;20088;-68
2021/08/16 19:00:19;;;;;;;23.17;15.13;;;25.00;78.70;;;;;;5015878;28;20566;-68
2021/08/16 19:02:46;;;;;;;17.27;12.65;;;24.90;78.60;;;;;;5015558;28;20042;-68
2021/08/16 19:05:14;;;;;;;21.67;14.30;;;24.90;78.60;;;;;;5015514;28;20033;-68
2021/08/16 19:07:40;;;;;;;18.17;12.50;;;24.80;78.80;;;;;;5014389;28;20025;-68
2021/08/16 19:10:08;;;;;;;19.95;12.50;;;24.80;79.00;;;;;;5016692;28;20033;-68
2021/08/16 19:12:37;;;;;;;16.58;11.50;;;24.80;79.00;;;;;;5012479;28;20105;-68
2021/08/16 19:15:05;;;;;;;19.20;11.13;;;24.80;79.20;;;;;;5015022;28;20152;-68
2021/08/16 19:17:31;;;;;;;14.13;10.18;;;24.70;79.20;;;;;;5014922;28;20022;-68
2021/08/16 19:19:56;;;;;;;15.82;9.82;;;24.60;79.00;;;;;;5015577;28;20496;-68
2021/08/16 19:22:22;;;;;;;15.82;9.45;;;24.60;79.30;;;;;;5016000;28;20117;-68
2021/08/16 19:24:48;;;;;;;16.52;9.95;;;24.60;79.50;;;;;;5019217;28;20044;-68
2021/08/16 19:27:15;;;;;;;12.98;9.32;;;24.60;79.40;;;;;;5022695;28;20033;-68
2021/08/16 19:29:41;;;;;;;10.90;8.82;;;24.50;79.60;;;;;;5015540;28;20033;-68
2021/08/16 19:32:07;;;;;;;12.40;9.40;;;24.50;79.80;;;;;;5015464;28;20029;-68
2021/08/16 19:34:32;;;;;;;11.15;8.55;;;24.50;80.10;;;;;;5015681;28;20022;-68
2021/08/16 19:36:58;;;;;;;13.18;9.35;;;24.40;80.70;;;;;;5015843;28;20412;-68
2021/08/16 19:39:24;;;;;;;12.35;9.43;;;24.40;81.00;;;;;;5015857;28;20046;-68
